Time;durP1;ratioP1;P1;durP2;ratioP2;P2;SDS_P1;SDS_P2;PMS_P1;PMS_P2;Temp;Humidity;BMP_temperature;BMP_pressure;BME280_temperature;BME280_humidity;BME280_pressure;Samples;Min_cycle;Max_cycle;Signal;HPM_P1;HPM_P2
2022/05/18 00:01:07;;;;;;;9.30;6.10;;;16.10;72.10;;;15.13;76.22;96521.88;4869366;28;20292;-66
2022/05/18 00:03:36;;;;;;;6.30;5.45;;;16.10;72.50;;;15.10;75.08;96522.28;4868615;28;20177;-67
2022/05/18 00:06:03;;;;;;;8.10;5.85;;;16.00;72.90;;;15.07;75.11;96532.47;4882272;28;20799;-67
2022/05/18 00:08:35;;;;;;;10.27;5.85;;;16.00;73.20;;;15.05;76.34;96524.75;4867610;28;20435;-67
2022/05/18 00:11:04;;;;;;;6.10;5.50;;;15.90;73.40;;;15.01;75.73;96528.81;4868462;28;20360;-67
2022/05/18 00:13:30;;;;;;;7.80;6.00;;;16.00;73.70;;;14.97;76.72;96527.63;4852828;28;20276;-67
2022/05/18 00:15:56;;;;;;;6.13;5.50;;;15.90;73.80;;;14.93;76.59;96526.38;4880493;28;20366;-67
2022/05/18 00:18:22;;;;;;;7.20;6.13;;;15.90;74.10;;;14.91;77.52;96528.41;4889099;28;20443;-67
2022/05/18 00:20:48;;;;;;;7.90;6.03;;;15.90;74.30;;;14.89;78.03;96530.47;4862805;28;20540;-67
2022/05/18 00:23:14;;;;;;;6.88;5.65;;;15.90;74.40;;;14.88;78.22;96528.81;4850835;28;20352;-67
2022/05/18 00:25:40;;;;;;;7.05;6.28;;;15.90;74.50;;;14.83;77.92;96531.28;4845026;28;20361;-68
2022/05/18 00:28:07;;;;;;;8.60;5.80;;;15.70;74.70;;;14.82;77.67;96524.34;4867926;28;20792;-67
2022/05/18 00:30:33;;;;;;;9.45;6.25;;;15.80;74.70;;;14.80;77.70;96527.22;4855492;28;20304;-68
2022/05/18 00:33:05;;;;;;;8.13;6.03;;;15.80;74.70;;;14.75;77.98;96529.66;4849711;28;20190;-67
2022/05/18 00:35:32;;;;;;;8.23;5.68;;;15.70;75.10;;;14.72;79.50;96524.78;4860630;28;20284;-67
2022/05/18 00:37:58;;;;;;;7.28;5.63;;;15.70;75.10;;;14.70;79.07;96530.25;4871140;28;20330;-67
2022/05/18 00:40:24;;;;;;;7.65;5.95;;;15.70;75.20;;;14.72;78.11;96521.31;4852829;28;20401;-67
2022/05/18 00:42:50;;;;;;;7.20;6.13;;;15.70;75.00;;;14.69;79.16;96533.09;4883753;28;20441;-67
2022/05/18 00:45:16;;;;;;;8.23;5.80;;;15.60;75.10;;;14.68;79.00;96534.94;4879292;28;20346;-68
2022/05/18 00:47:42;;;;;;;7.00;5.72;;;15.60;75.40;;;14.66;79.42;96529.03;4866957;28;20874;-68
2022/05/18 00:50:13;;;;;;;8.57;6.10;;;15.60;75.40;;;14.66;78.85;96531.69;4868473;28;20228;-67
2022/05/18 00:52:44;;;;;;;7.65;6.20;;;15.70;75.30;;;14.65;80.52;96534.53;4870714;28;20850;-67
2022/05/18 00:55:12;;;;;;;10.52;6.47;;;15.70;75.30;;;14.62;79.65;96538.41;4832731;28;21003;-67
2022/05/18 00:57:59;;;;;;;9.30;6.35;;;15.60;75.30;;;14.61;80.78;96538.63;4850699;28;20894;-67
2022/05/18 01:00:26;;;;;;;10.82;7.03;;;15.50;75.50;;;14.57;78.75;96532.91;4868437;28;20767;-67
2022/05/18 01:02:59;;;;;;;7.82;6.90;;;15.60;75.50;;;14.55;79.88;96532.31;4882724;28;20252;-67
2022/05/18 01:05:31;;;;;;;9.25;6.90;;;15.60;75.50;;;14.52;79.36;96542.50;4847988;28;20340;-69
2022/05/18 01:07:58;;;;;;;8.23;6.22;;;15.50;75.60;;;14.48;79.72;96534.13;4845367;28;20704;-67
2022/05/18 01:10:28;;;;;;;7.18;6.40;;;15.50;75.70;;;14.44;80.53;96538.19;4868958;28;20363;-67
2022/05/18 01:12:59;;;;;;;6.97;6.05;;;15.40;75.60;;;14.40;79.15;96547.53;4884653;28;20462;-67
2022/05/18 01:15:25;;;;;;;7.45;5.80;;;15.30;75.20;;;14.36;78.34;96539.19;4875184;28;20310;-67
2022/05/18 01:17:53;;;;;;;8.50;5.90;;;15.40;74.70;;;14.32;79.78;96545.09;4871106;28;20362;-67
2022/05/18 01:20:26;;;;;;;7.03;6.15;;;15.30;74.60;;;14.28;80.14;96534.09;4871448;28;20565;-68
2022/05/18 01:23:29;;;;;;;7.10;5.85;;;15.30;74.70;;;14.25;80.14;96554.81;4846125;28;20740;-67
2022/05/18 01:26:18;;;;;;;8.43;6.13;;;15.20;74.60;;;14.21;80.62;96558.88;4860710;28;20489;-67
2022/05/18 01:28:53;;;;;;;6.15;5.30;;;15.20;74.80;;;14.18;78.98;96554.00;4885825;28;20220;-68
2022/05/18 01:31:49;;;;;;;6.63;5.93;;;15.20;74.80;;;14.18;80.26;96554.00;4858403;28;20308;-67
2022/05/18 01:34:18;;;;;;;11.48;6.20;;;15.20;74.60;;;14.15;78.34;96559.69;4890811;28;20293;-67
2022/05/18 01:36:44;;;;;;;10.88;6.32;;;15.10;74.70;;;14.10;79.18;96553.19;4886204;28;20341;-67
2022/05/18 01:39:18;;;;;;;8.20;6.75;;;15.10;74.80;;;14.07;79.49;96558.88;4895807;28;20209;-67
2022/05/18 01:41:55;;;;;;;9.52;6.13;;;15.00;74.90;;;14.05;78.93;96555.59;4850874;28;20363;-68
2022/05/18 01:44:21;;;;;;;7.43;6.18;;;15.10;75.00;;;14.03;79.57;96562.09;4845886;28;20562;-67
2022/05/18 01:46:48;;;;;;;10.80;6.43;;;15.10;75.10;;;14.01;80.26;96554.34;4886565;28;20296;-68
2022/05/18 01:49:14;;;;;;;6.95;5.68;;;15.10;75.20;;;13.99;79.60;96552.94;4848348;28;20260;-68
2022/05/18 01:51:43;;;;;;;9.27;6.03;;;15.10;75.30;;;13.98;79.06;96548.66;4849785;28;20500;-66
2022/05/18 01:54:10;;;;;;;9.38;6.45;;;15.00;75.30;;;13.96;79.06;96559.44;4854354;28;21604;-67
2022/05/18 01:56:37;;;;;;;7.07;6.25;;;15.00;75.40;;;13.93;80.56;96551.91;4867687;28;20319;-67
2022/05/18 01:59:03;;;;;;;9.70;6.50;;;15.00;75.40;;;13.92;79.70;96554.75;4873047;28;20201;-67
2022/05/18 02:01:29;;;;;;;8.02;5.82;;;15.00;75.50;;;13.90;79.79;96552.31;4837062;28;20332;-67
2022/05/18 02:03:55;;;;;;;11.63;6.70;;;15.00;75.50;;;13.86;81.05;96556.34;4888377;28;20363;-67
2022/05/18 02:06:21;;;;;;;8.52;6.50;;;14.90;75.60;;;13.84;81.08;96563.69;4870061;28;20255;-67
2022/05/18 02:08:47;;;;;;;7.90;6.10;;;14.90;75.80;;;13.83;80.93;96566.53;4902067;28;20292;-67
2022/05/18 02:11:15;;;;;;;7.38;6.43;;;14.90;75.80;;;13.81;79.90;96564.06;4860890;28;20570;-68
2022/05/18 02:13:41;;;;;;;7.30;6.10;;;14.90;75.90;;;13.79;80.32;96563.44;4870016;28;20088;-66
2022/05/18 02:16:07;;;;;;;6.38;5.68;;;14.90;75.70;;;13.78;80.28;96570.53;4855781;28;20297;-68
2022/05/18 02:18:33;;;;;;;7.60;5.97;;;14.90;75.60;;;13.77;79.91;96573.38;4867604;28;20297;-68
2022/05/18 02:21:08;;;;;;;9.27;6.38;;;14.90;75.50;;;13.75;81.41;96562.19;4872989;28;20326;-68
2022/05/18 02:23:35;;;;;;;9.35;5.95;;;14.80;75.70;;;13.70;80.82;96554.88;4853409;28;20854;-68
2022/05/18 02:26:12;;;;;;;31.45;24.95;;;14.70;75.70;;;13.67;81.02;96563.19;4870325;28;20460;-67
2022/05/18 02:28:38;;;;;;;35.85;28.95;;;14.70;75.90;;;13.63;81.36;96566.44;4879311;28;20368;-68
2022/05/18 02:31:04;;;;;;;24.45;20.15;;;14.70;76.10;;;13.62;81.48;96570.09;4898675;28;20508;-69
2022/05/18 02:33:30;;;;;;;12.23;9.10;;;14.70;76.40;;;13.61;82.00;96573.75;4876894;28;20386;-69
2022/05/18 02:35:56;;;;;;;26.95;21.08;;;14.70;76.60;;;13.60;81.38;96572.13;4862268;28;20398;-68
2022/05/18 02:38:22;;;;;;;36.45;30.52;;;14.70;76.60;;;13.60;81.87;96572.94;4866987;28;20332;-69
2022/05/18 02:40:48;;;;;;;20.55;16.45;;;14.70;76.50;;;13.59;81.71;96575.78;4881693;28;20495;-69
2022/05/18 02:43:14;;;;;;;9.50;8.50;;;14.70;76.60;;;13.59;82.11;96578.41;4872813;28;20276;-69
2022/05/18 02:45:42;;;;;;;8.52;7.10;;;14.70;76.70;;;13.57;81.94;96578.59;4836339;28;20373;-73
2022/05/18 02:48:08;;;;;;;9.10;6.72;;;14.70;76.60;;;13.56;81.62;96581.41;4863371;28;20269;-72
2022/05/18 02:50:34;;;;;;;8.68;5.97;;;14.70;76.60;;;13.57;81.88;96580.41;4854256;28;20331;-72
2022/05/18 02:53:01;;;;;;;8.52;6.40;;;14.70;76.50;;;13.57;82.56;96583.06;4871452;28;20319;-67
2022/05/18 02:58:12;;;;;;;7.75;6.10;;;14.70;76.30;;;13.55;81.29;96577.16;4857325;28;20353;-69
2022/05/18 03:00:39;;;;;;;7.03;5.82;;;14.70;76.30;;;13.56;82.19;96584.06;4853199;28;20464;-67
2022/05/18 03:03:06;;;;;;;19.25;16.70;;;14.60;76.20;;;13.56;81.40;96581.41;4868585;28;20277;-67
2022/05/18 03:05:32;;;;;;;22.15;18.60;;;14.70;76.00;;;13.55;82.40;96579.78;4882321;28;20356;-67
2022/05/18 03:07:58;;;;;;;18.45;15.63;;;14.70;76.20;;;13.54;82.05;96578.16;4873791;28;20376;-67
2022/05/18 03:10:25;;;;;;;15.10;10.35;;;14.70;76.10;;;13.52;81.45;96577.53;4870999;28;20428;-67
2022/05/18 03:12:51;;;;;;;14.45;10.90;;;14.60;76.20;;;13.52;81.33;96580.19;4857211;28;20208;-67
2022/05/18 03:15:17;;;;;;;29.10;20.52;;;14.60;76.40;;;13.51;81.39;96583.84;4886493;28;20427;-68
2022/05/18 03:17:43;;;;;;;22.25;18.02;;;14.60;76.20;;;13.48;81.05;96591.16;4857057;28;20809;-67
2022/05/18 03:23:33;;;;;;;15.43;11.68;;;14.60;76.10;;;13.46;82.54;96582.59;4867782;28;20300;-68
2022/05/18 03:25:40;;;;;;;9.25;6.45;;;14.60;76.30;;;13.44;81.86;96595.19;4865477;28;20396;-67
2022/05/18 03:28:06;;;;;;;8.00;6.18;;;14.60;76.20;;;13.44;81.64;96599.66;4865643;28;20378;-68
2022/05/18 03:30:32;;;;;;;7.65;6.15;;;14.60;76.30;;;13.44;81.53;96602.31;4876219;28;20495;-69
2022/05/18 03:32:58;;;;;;;9.90;7.80;;;14.60;76.10;;;13.42;82.51;96607.78;4891527;28;20317;-67
2022/05/18 03:35:24;;;;;;;8.20;6.70;;;14.60;76.10;;;13.38;82.49;96611.03;4867019;28;20372;-68
2022/05/18 03:37:50;;;;;;;20.60;13.88;;;14.60;76.30;;;13.36;81.56;96608.56;4868206;28;20369;-68
2022/05/18 03:40:16;;;;;;;19.17;14.77;;;14.60;76.50;;;13.36;82.92;96613.03;4902040;28;20208;-68
2022/05/18 03:42:42;;;;;;;24.73;22.05;;;14.60;76.40;;;13.33;82.42;96616.88;4881460;28;20352;-67
2022/05/18 03:45:09;;;;;;;24.23;21.73;;;14.60;76.50;;;13.33;82.17;96619.50;4893856;28;20265;-67
2022/05/18 03:47:35;;;;;;;11.95;8.98;;;14.60;76.60;;;13.31;82.64;96612.78;4870376;28;20878;-68
2022/05/18 03:50:01;;;;;;;9.13;7.32;;;14.50;76.70;;;13.30;83.00;96617.25;4876214;28;20049;-73
2022/05/18 03:52:27;;;;;;;8.48;6.63;;;14.50;77.00;;;13.31;83.00;96620.72;4880429;28;20273;-74
2022/05/18 03:54:53;;;;;;;9.52;6.55;;;14.60;76.90;;;13.32;82.60;96625.00;4910730;28;20042;-68
2022/05/18 03:57:19;;;;;;;11.45;6.38;;;14.60;76.70;;;13.31;82.75;96626.81;4996821;28;20188;-64
2022/05/18 03:59:44;;;;;;;7.93;5.95;;;14.60;76.70;;;13.30;82.73;96619.91;4988901;28;20034;-64
2022/05/18 04:02:10;;;;;;;9.98;6.10;;;14.60;76.70;;;13.33;82.58;96632.72;4991293;28;20377;-63
2022/05/18 04:04:36;;;;;;;8.75;6.43;;;14.60;76.80;;;13.33;83.44;96624.78;4958896;28;20094;-63
2022/05/18 04:07:02;;;;;;;9.52;6.40;;;14.60;76.70;;;13.36;82.93;96640.28;4952826;28;20634;-63
2022/05/18 04:09:27;;;;;;;8.65;6.22;;;14.60;76.90;;;13.35;83.02;96633.38;4968608;28;20043;-63
2022/05/18 04:11:53;;;;;;;9.10;6.43;;;14.70;76.90;;;13.37;83.18;96636.63;4967063;28;20344;-63
2022/05/18 04:14:19;;;;;;;8.75;6.68;;;14.60;77.00;;;13.33;83.75;96634.53;5002241;28;20044;-63
2022/05/18 04:16:49;;;;;;;9.15;6.80;;;14.60;76.90;;;13.35;83.71;96638.66;4969056;28;20120;-63
2022/05/18 04:19:15;;;;;;;7.30;6.35;;;14.60;76.90;;;13.35;83.30;96635.16;4965104;28;20033;-63
2022/05/18 04:21:41;;;;;;;11.02;6.68;;;14.60;77.20;;;13.36;83.49;96642.13;4979929;28;20117;-64
2022/05/18 04:24:07;;;;;;;11.55;7.10;;;14.60;77.30;;;13.37;83.70;96638.47;4984145;28;20048;-63
2022/05/18 04:26:33;;;;;;;8.18;6.47;;;14.60;77.40;;;13.36;83.39;96634.19;5001895;28;20255;-63
2022/05/18 04:28:59;;;;;;;8.32;7.07;;;14.70;77.40;;;13.40;84.11;96651.28;4988644;28;20740;-64
2022/05/18 04:31:24;;;;;;;11.02;6.70;;;14.70;77.50;;;13.44;85.34;96650.69;4961700;28;20514;-64
2022/05/18 04:33:50;;;;;;;10.93;7.32;;;14.80;77.50;;;13.45;84.82;96647.03;4986466;28;20952;-64
2022/05/18 04:36:16;;;;;;;9.32;6.80;;;14.90;77.50;;;13.47;85.01;96652.13;4971794;28;20168;-63
2022/05/18 04:38:42;;;;;;;10.30;7.25;;;14.90;77.50;;;13.49;85.75;96658.84;4968893;28;20217;-64
2022/05/18 04:41:07;;;;;;;9.70;7.35;;;15.00;77.50;;;13.56;85.77;96672.09;4967730;28;20141;-64
2022/05/18 04:43:34;;;;;;;16.90;8.48;;;15.00;77.60;;;13.60;85.95;96677.84;4989233;28;20140;-64
2022/05/18 04:46:00;;;;;;;10.05;7.28;;;15.00;77.70;;;13.62;86.45;96678.47;5001182;28;20053;-64
2022/05/18 04:48:30;;;;;;;13.32;7.75;;;15.10;77.70;;;13.69;86.66;96679.31;4982359;28;20655;-64
2022/05/18 04:50:56;;;;;;;12.13;7.88;;;15.10;77.80;;;13.73;86.39;96684.00;4972122;28;20173;-63
2022/05/18 04:53:22;;;;;;;15.57;12.77;;;15.10;77.80;;;13.79;86.70;96690.34;4978437;28;20022;-64
2022/05/18 04:55:49;;;;;;;18.10;15.23;;;15.20;77.90;;;13.85;86.07;96691.41;4980987;28;20124;-63
2022/05/18 04:58:15;;;;;;;13.77;10.50;;;15.30;78.20;;;13.89;88.08;96698.78;4956200;28;20132;-63
2022/05/18 05:00:41;;;;;;;12.88;9.25;;;15.40;78.80;;;13.97;88.39;96695.94;4975710;28;20148;-64
2022/05/18 05:03:07;;;;;;;11.98;8.07;;;15.50;79.20;;;14.01;87.03;96691.09;4974904;28;20375;-64
2022/05/18 05:05:32;;;;;;;10.80;8.73;;;15.50;78.40;;;14.05;87.56;96695.00;4987195;28;20448;-64
2022/05/18 05:07:58;;;;;;;10.98;8.82;;;15.50;78.00;;;14.08;86.97;96700.72;4970167;28;20095;-64
2022/05/18 05:10:24;;;;;;;13.63;9.77;;;15.60;77.90;;;14.13;88.00;96702.75;4988041;28;20038;-64
2022/05/18 05:12:50;;;;;;;11.50;9.73;;;15.60;78.30;;;14.18;87.94;96707.47;4975173;28;20767;-63
2022/05/18 05:15:16;;;;;;;11.40;9.43;;;15.60;78.30;;;14.24;87.78;96701.38;4983331;28;20477;-63
2022/05/18 05:17:41;;;;;;;12.75;10.80;;;15.70;78.40;;;14.29;86.71;96705.09;4986725;28;20055;-63
2022/05/18 05:20:08;;;;;;;14.18;10.45;;;15.80;77.90;;;14.37;86.26;96712.03;4978547;28;20113;-62
2022/05/18 05:22:34;;;;;;;14.55;10.73;;;15.90;77.50;;;14.42;86.84;96706.94;4986366;28;20033;-62
2022/05/18 05:25:00;;;;;;;15.63;10.65;;;16.00;77.30;;;14.54;87.50;96713.34;5006777;28;20061;-62
2022/05/18 05:27:25;;;;;;;14.43;9.95;;;16.10;77.10;;;14.61;87.23;96714.19;4968133;28;20125;-63
2022/05/18 05:29:51;;;;;;;15.15;10.77;;;16.20;76.70;;;14.72;86.76;96714.63;4989279;28;20049;-64
2022/05/18 05:32:20;;;;;;;12.98;10.20;;;16.40;76.30;;;14.84;86.07;96708.53;4978726;28;20370;-63
2022/05/18 05:34:46;;;;;;;13.63;10.70;;;16.50;76.00;;;14.94;85.17;96713.47;4970521;28;20142;-64
2022/05/18 05:37:12;;;;;;;14.98;10.15;;;16.60;74.80;;;14.97;85.20;96710.41;4969730;28;20519;-63
2022/05/18 05:39:37;;;;;;;12.02;9.40;;;16.70;74.80;;;15.13;84.79;96717.94;4955094;28;20058;-64
2022/05/18 05:42:04;;;;;;;12.38;9.27;;;16.90;74.80;;;15.23;84.42;96718.38;4971547;28;20083;-63
2022/05/18 05:44:30;;;;;;;11.27;8.93;;;17.00;74.50;;;15.36;85.31;96716.75;4965866;28;20038;-63
2022/05/18 05:46:56;;;;;;;12.23;9.48;;;17.20;74.00;;;15.54;84.60;96714.28;4969043;28;20045;-64
2022/05/18 05:49:22;;;;;;;12.55;9.43;;;17.50;72.90;;;15.69;84.38;96706.97;4955409;28;20046;-64
2022/05/18 05:51:48;;;;;;;16.17;10.15;;;17.70;72.30;;;15.89;82.92;96712.25;4971927;28;20287;-63
2022/05/18 05:54:14;;;;;;;12.60;9.88;;;17.70;71.70;;;16.05;81.99;96710.97;4984776;28;20038;-63
2022/05/18 05:56:40;;;;;;;10.40;9.27;;;17.90;70.40;;;16.23;82.08;96716.44;4992433;28;20040;-64
2022/05/18 05:59:06;;;;;;;16.42;10.50;;;18.20;69.80;;;16.42;81.27;96707.59;4985112;28;20030;-63
2022/05/18 06:01:31;;;;;;;14.13;10.10;;;18.40;69.40;;;16.64;80.86;96716.09;5004544;28;20128;-63
2022/05/18 06:03:57;;;;;;;12.48;10.30;;;18.70;68.90;;;16.87;80.50;96710.28;4953279;28;20117;-63
2022/05/18 06:06:23;;;;;;;17.08;9.60;;;18.90;68.10;;;17.10;79.27;96715.84;4977848;28;20172;-64
2022/05/18 06:08:50;;;;;;;12.10;9.02;;;19.10;67.30;;;17.29;78.04;96718.59;4973891;28;20146;-63
2022/05/18 06:11:16;;;;;;;10.73;9.48;;;19.30;66.50;;;17.50;76.98;96720.06;4968119;28;20046;-63
2022/05/18 06:13:41;;;;;;;12.35;9.43;;;19.50;65.20;;;17.64;76.42;96717.06;4983836;28;20117;-64
2022/05/18 06:16:08;;;;;;;13.43;9.20;;;19.60;65.10;;;17.86;75.86;96714.03;4977455;28;20124;-63
2022/05/18 06:18:35;;;;;;;10.95;8.35;;;20.00;64.00;;;18.09;74.04;96722.19;4986172;28;20516;-64
2022/05/18 06:21:01;;;;;;;14.75;8.82;;;20.20;62.70;;;18.33;73.14;96734.66;4954223;28;20490;-64
2022/05/18 06:23:27;;;;;;;11.25;9.38;;;20.40;62.40;;;18.50;73.33;96731.38;5004263;28;20114;-64
2022/05/18 06:25:58;;;;;;;9.68;8.68;;;20.60;61.70;;;18.76;71.50;96731.06;4978518;28;20049;-63
2022/05/18 06:28:23;;;;;;;11.02;8.82;;;20.80;60.60;;;18.95;70.42;96735.34;4978955;28;20343;-64
2022/05/18 06:30:49;;;;;;;13.90;9.27;;;21.10;59.90;;;19.13;70.57;96739.00;5004267;28;20623;-63
2022/05/18 06:33:15;;;;;;;12.30;9.85;;;21.30;60.20;;;19.30;70.60;96737.31;4969393;28;20116;-64
2022/05/18 06:35:41;;;;;;;10.20;8.57;;;21.50;59.90;;;19.48;71.22;96731.09;4989278;28;20583;-64
2022/05/18 06:38:14;;;;;;;10.23;9.10;;;21.80;59.90;;;19.69;68.09;96741.25;4986836;28;20065;-63
2022/05/18 06:43:25;;;;;;;11.65;9.55;;;21.80;57.70;;;19.94;69.43;96743.69;4973331;28;20045;-64
2022/05/18 06:45:50;;;;;;;11.85;9.15;;;22.20;57.80;;;20.03;68.24;96734.28;4984928;28;20037;-63
2022/05/18 06:48:16;;;;;;;11.25;9.25;;;22.40;57.60;;;20.15;67.38;96743.13;4973782;28;20397;-64
2022/05/18 06:50:42;;;;;;;9.95;8.00;;;22.50;56.40;;;20.26;66.14;96740.66;4985791;28;20172;-64
2022/05/18 06:53:07;;;;;;;12.50;9.20;;;22.60;56.00;;;20.36;66.67;96740.88;4969780;28;20065;-63
2022/05/18 06:55:33;;;;;;;10.80;9.07;;;22.70;55.30;;;20.38;65.75;96744.94;4975920;28;20041;-63
2022/05/18 06:57:59;;;;;;;11.52;9.25;;;22.60;55.50;;;20.44;65.62;96748.56;4973899;28;20163;-63
2022/05/18 07:00:25;;;;;;;13.65;8.95;;;22.60;55.70;;;20.48;64.83;96750.53;4973452;28;20125;-64
2022/05/18 07:02:51;;;;;;;12.88;9.38;;;22.70;56.20;;;20.57;66.17;96755.50;4989699;28;20438;-64
2022/05/18 07:05:18;;;;;;;10.50;8.52;;;23.10;56.00;;;20.72;66.27;96761.97;4968427;28;20054;-65
2022/05/18 07:07:43;;;;;;;11.32;9.15;;;23.40;55.40;;;20.88;65.46;96756.94;4984466;28;20042;-64
2022/05/18 07:10:09;;;;;;;11.88;8.95;;;23.60;54.30;;;21.06;65.19;96754.91;4983727;28;20050;-64
2022/05/18 07:12:37;;;;;;;11.68;8.77;;;23.80;53.80;;;21.23;64.90;96746.88;4985316;28;20038;-64
2022/05/18 07:15:05;;;;;;;12.27;9.02;;;24.10;53.00;;;21.39;64.25;96751.50;4951881;28;20062;-64
2022/05/18 07:17:31;;;;;;;9.70;8.45;;;24.20;51.90;;;21.59;63.21;96747.53;4980317;28;20033;-64
2022/05/18 07:19:57;;;;;;;10.65;9.25;;;24.60;51.10;;;21.79;63.11;96729.13;4985822;28;20084;-64
2022/05/18 07:22:22;;;;;;;12.45;10.13;;;24.80;50.20;;;22.05;62.27;96740.25;4959499;28;20128;-64
2022/05/18 07:24:49;;;;;;;10.80;9.30;;;25.10;50.00;;;22.29;61.41;96744.34;5001443;28;20137;-64
2022/05/18 07:27:16;;;;;;;12.00;8.68;;;25.40;49.50;;;22.48;62.03;96737.63;4968880;28;20107;-64
2022/05/18 07:29:42;;;;;;;10.98;9.25;;;25.50;49.70;;;22.64;61.32;96729.81;4984974;28;20046;-64
2022/05/18 07:32:08;;;;;;;11.73;8.82;;;25.20;50.00;;;22.67;59.74;96740.03;4968581;28;20145;-64
2022/05/18 07:34:34;;;;;;;12.15;9.05;;;24.80;49.80;;;22.65;59.79;96731.41;4960832;28;20374;-64
2022/05/18 07:37:00;;;;;;;10.68;8.32;;;24.80;50.50;;;22.67;59.68;96730.09;4956190;28;20099;-64
2022/05/18 07:39:28;;;;;;;9.82;7.60;;;24.90;49.90;;;22.75;59.17;96732.34;4966695;28;20691;-64
2022/05/18 07:42:00;;;;;;;9.80;7.32;;;25.00;49.80;;;22.81;57.91;96722.47;4986007;28;20568;-65
2022/05/18 07:44:26;;;;;;;10.70;8.25;;;25.10;49.40;;;22.94;58.79;96722.13;4969387;28;20041;-64
2022/05/18 07:46:52;;;;;;;10.38;8.52;;;25.40;49.80;;;23.10;57.88;96721.22;4967004;28;20426;-64
2022/05/18 07:49:18;;;;;;;10.27;7.63;;;25.60;48.50;;;23.23;58.00;96726.16;4968157;28;20053;-64
2022/05/18 07:51:44;;;;;;;10.05;6.75;;;25.80;48.40;;;23.42;57.32;96741.91;4960065;28;20540;-64
2022/05/18 07:54:10;;;;;;;10.13;6.38;;;26.20;47.50;;;23.63;57.06;96742.94;4993225;28;20029;-64
2022/05/18 07:56:35;;;;;;;9.88;6.95;;;26.50;46.40;;;23.88;56.68;96742.31;4975882;28;20077;-64
2022/05/18 07:59:03;;;;;;;8.10;6.28;;;26.70;46.40;;;24.06;54.95;96736.56;4965315;28;20121;-65
2022/05/18 08:01:29;;;;;;;11.57;6.50;;;26.60;45.20;;;24.16;54.47;96736.59;4992965;28;20045;-64
2022/05/18 08:03:54;;;;;;;8.82;6.68;;;26.60;44.80;;;24.22;53.96;96738.28;4987309;28;20540;-64
2022/05/18 08:06:21;;;;;;;9.88;6.57;;;26.70;45.30;;;24.33;53.51;96747.22;4953963;28;20552;-64
2022/05/18 08:08:46;;;;;;;10.00;6.25;;;26.80;44.90;;;24.40;52.83;96743.22;4974765;28;20072;-64
2022/05/18 08:16:41;;;;;;;10.00;6.10;;;27.40;45.30;;;24.77;53.27;96750.41;4968207;28;20064;-65
2022/05/18 08:19:10;;;;;;;6.25;5.65;;;27.60;43.90;;;24.91;52.09;96753.44;4989091;28;20034;-65
2022/05/18 08:21:37;;;;;;;9.98;5.63;;;27.70;42.30;;;25.08;52.19;96745.94;4961290;28;20042;-65
2022/05/18 08:24:05;;;;;;;8.23;6.50;;;28.10;42.60;;;25.24;51.60;96742.22;4987886;28;20042;-65
2022/05/18 08:26:31;;;;;;;7.85;5.60;;;28.30;42.30;;;25.52;51.64;96749.00;4968111;28;20754;-64
2022/05/18 08:29:00;;;;;;;9.48;6.07;;;28.90;42.10;;;25.85;49.77;96744.19;4956818;28;20672;-65
2022/05/18 08:31:26;;;;;;;9.63;6.07;;;29.30;40.20;;;26.16;50.19;96743.06;4989855;28;20046;-64
2022/05/18 08:33:55;;;;;;;6.70;5.47;;;29.80;39.40;;;26.60;49.99;96738.94;4985150;28;20038;-65
2022/05/18 08:36:23;;;;;;;8.85;5.75;;;30.50;38.80;;;27.01;49.70;96743.13;4976102;28;20093;-65
2022/05/18 08:38:49;;;;;;;10.27;5.43;;;30.80;39.50;;;27.48;48.76;96741.75;5000195;28;20432;-65
2022/05/18 08:41:25;;;;;;;10.02;5.90;;;31.30;38.30;;;27.78;46.28;96735.31;4952511;28;20462;-65
2022/05/18 08:43:53;;;;;;;8.75;5.88;;;31.40;37.70;;;28.13;47.54;96741.53;4967853;28;20092;-65
2022/05/18 08:46:45;;;;;;;7.35;5.63;;;31.50;37.80;;;28.41;45.83;96732.59;4975325;28;20034;-66
2022/05/18 08:49:12;;;;;;;9.95;7.72;;;31.70;38.20;;;28.61;46.74;96726.94;4985446;28;20041;-65
2022/05/18 08:52:09;;;;;;;7.60;5.85;;;31.70;36.90;;;28.77;44.01;96729.47;4988023;28;20038;-65
2022/05/18 08:55:02;;;;;;;7.60;5.22;;;31.80;36.90;;;28.92;43.16;96726.59;4995303;28;20096;-66
2022/05/18 08:57:38;;;;;;;7.13;4.80;;;31.80;37.20;;;29.05;43.53;96731.31;4980682;28;20072;-65
2022/05/18 09:00:15;;;;;;;12.45;6.68;;;32.00;37.20;;;29.25;44.30;96731.03;4965413;28;20116;-65
2022/05/18 09:02:42;;;;;;;7.55;5.88;;;32.20;38.10;;;29.40;44.19;96721.03;4973155;28;20038;-65
2022/05/18 09:05:13;;;;;;;9.48;4.65;;;32.30;36.00;;;29.50;41.87;96719.03;4949838;28;20497;-64
2022/05/18 09:08:07;;;;;;;9.10;5.50;;;32.50;35.40;;;29.58;40.55;96714.81;4968483;28;20215;-65
2022/05/18 09:10:41;;;;;;;7.53;5.60;;;32.50;34.60;;;29.57;40.79;96710.50;4989848;28;20204;-66
2022/05/18 09:13:07;;;;;;;8.45;4.80;;;32.50;35.00;;;29.64;42.98;96716.34;4985251;28;20116;-65
2022/05/18 09:16:14;;;;;;;9.32;5.80;;;32.50;35.50;;;29.62;40.08;96718.56;4965838;28;20121;-65
2022/05/18 09:19:31;;;;;;;6.95;4.78;;;32.20;34.90;;;29.82;40.95;96718.22;4984268;28;20100;-65
2022/05/18 09:22:22;;;;;;;8.88;5.28;;;32.80;35.60;;;29.99;39.78;96717.66;4938026;28;20555;-66
2022/05/18 09:25:38;;;;;;;9.68;6.78;;;33.10;34.00;;;30.14;40.10;96720.16;4981081;28;20840;-65
2022/05/18 09:28:22;;;;;;;5.25;4.55;;;33.40;34.80;;;30.24;40.35;96724.56;4986410;28;20037;-65
2022/05/18 09:31:25;;;;;;;5.57;3.72;;;33.50;34.30;;;30.45;39.86;96723.09;4996996;28;20053;-65
2022/05/18 09:34:14;;;;;;;7.55;4.38;;;33.80;34.10;;;30.55;39.33;96718.56;4971538;28;20045;-66
2022/05/18 09:36:42;;;;;;;5.35;4.07;;;34.00;32.60;;;30.70;40.18;96716.38;4984314;28;20057;-65
2022/05/18 09:39:13;;;;;;;4.60;3.80;;;34.10;33.40;;;30.80;39.85;96718.09;5004320;28;20030;-65
2022/05/18 09:41:47;;;;;;;7.38;4.15;;;34.30;33.60;;;30.97;38.54;96709.28;4986978;28;20033;-65
2022/05/18 09:44:42;;;;;;;6.35;3.58;;;34.60;32.60;;;31.20;37.98;96721.84;4973152;28;20038;-65
2022/05/18 09:47:09;;;;;;;5.35;3.55;;;34.80;32.20;;;31.34;38.84;96716.38;4994104;28;20045;-65
2022/05/18 09:49:50;;;;;;;5.13;3.80;;;35.00;31.60;;;31.48;38.89;96714.44;4970057;28;20042;-65
2022/05/18 09:52:22;;;;;;;4.05;3.50;;;35.20;31.60;;;31.59;37.11;96709.53;4954197;28;20050;-65
2022/05/18 09:54:47;;;;;;;9.07;3.35;;;35.30;30.60;;;31.77;38.62;96715.94;4979297;28;20034;-65
2022/05/18 09:57:46;;;;;;;4.30;2.60;;;35.70;29.10;;;31.91;36.53;96716.66;4963834;28;20123;-65
2022/05/18 10:00:17;;;;;;;5.50;2.80;;;35.90;30.10;;;32.08;35.92;96718.69;5003208;28;20551;-65
2022/05/18 10:08:37;;;;;;;4.60;2.92;;;37.10;27.00;;;33.04;35.43;96715.22;4958769;28;20045;-66
2022/05/18 10:11:06;;;;;;;6.00;2.85;;;37.40;27.20;;;33.32;33.96;96710.34;4964439;28;20053;-66
2022/05/18 10:13:41;;;;;;;3.83;2.65;;;37.70;26.80;;;33.59;33.87;96720.13;4978945;28;20041;-65
2022/05/18 10:16:28;;;;;;;5.03;2.75;;;37.90;27.00;;;33.84;33.59;96711.13;4954259;28;20541;-65
2022/05/18 10:18:54;;;;;;;5.10;3.28;;;38.10;27.40;;;34.10;34.82;96709.13;4961009;28;20247;-66
2022/05/18 10:21:53;;;;;;;4.22;2.40;;;38.50;26.60;;;34.44;32.21;96696.53;4961654;28;20801;-66
2022/05/18 10:24:50;;;;;;;5.65;2.92;;;38.90;25.60;;;34.83;32.48;96709.00;4979787;28;20030;-66
2022/05/18 10:27:16;;;;;;;7.70;2.70;;;39.30;25.80;;;35.12;34.06;96704.69;4976604;28;20049;-66
2022/05/18 10:29:43;;;;;;;3.45;2.50;;;39.50;25.60;;;35.24;33.24;96697.34;5003695;28;20327;-66
2022/05/18 10:32:18;;;;;;;4.85;2.47;;;39.50;23.90;;;35.33;32.02;96699.22;4974951;28;20095;-66
2022/05/18 10:34:50;;;;;;;3.70;2.60;;;39.70;23.80;;;35.60;29.44;96698.69;4967627;28;20049;-66
2022/05/18 10:37:25;;;;;;;4.47;2.35;;;40.10;23.20;;;35.86;27.92;96691.06;4991498;28;20225;-66
2022/05/18 10:39:50;;;;;;;5.05;2.20;;;40.20;21.90;;;36.19;29.29;96693.75;4981362;28;20065;-66
2022/05/18 10:42:23;;;;;;;4.28;2.22;;;40.70;21.30;;;36.39;28.20;96692.09;4987022;28;20034;-66
2022/05/18 10:44:50;;;;;;;2.63;1.73;;;40.90;22.20;;;36.62;28.68;96683.41;5000592;28;20045;-66